Aparicio, Argentina
Current Conditions -  °F | °C
As of 12:00 AM on Friday 28 Nov 2014 (Local Time) from SAZM Reporting Station
Broken Clouds Broken Clouds  
Wind Chill: 59°   Ceiling: 800
Heat Index: 59°   Visibility: 5mi
Dew Point: 55°   Wind: 9mph
Humidity: 88%   Direction: 70°ENE
Pressure: 29.97"   Gusts: NA
Location:  38.62°S, 60.88°W
Report Text: SAZM 280300Z 07008KT 8000 BKN008 BKN20015/13 Q1015
Loading
Personal Weather Stations






























Interactive Weather Map New forecast layout! Learn more

10-Day Weather Forecast

Advertisements
Track Severe Weather on mobile